sensor_id;sensor_type;location;lat;lon;timestamp;pressure;altitude;pressure_sealevel;temperature;humidity
77149;BME280;66122;47.130;16.844;2023-02-28T00:06:24;100768.66;;;0.59;68.52
77149;BME280;66122;47.130;16.844;2023-02-28T00:16:27;100773.00;;;0.57;68.66
77149;BME280;66122;47.130;16.844;2023-02-28T00:26:29;100769.41;;;0.26;70.68
77149;BME280;66122;47.130;16.844;2023-02-28T00:36:32;100783.19;;;-0.01;71.29
77149;BME280;66122;47.130;16.844;2023-02-28T00:46:35;100798.63;;;-0.32;74.01
77149;BME280;66122;47.130;16.844;2023-02-28T00:56:37;100789.16;;;-0.20;72.89
77149;BME280;66122;47.130;16.844;2023-02-28T01:06:40;100781.31;;;-0.24;73.40
77149;BME280;66122;47.130;16.844;2023-02-28T01:16:45;100795.22;;;-0.19;72.99
77149;BME280;66122;47.130;16.844;2023-02-28T01:26:47;100800.47;;;-0.16;73.24
77149;BME280;66122;47.130;16.844;2023-02-28T01:36:51;100796.91;;;-0.30;74.32
77149;BME280;66122;47.130;16.844;2023-02-28T01:46:54;100801.31;;;-0.22;74.04
77149;BME280;66122;47.130;16.844;2023-02-28T01:57:14;100791.59;;;-0.46;74.92
77149;BME280;66122;47.130;16.844;2023-02-28T02:07:17;100791.31;;;-0.77;77.48
77149;BME280;66122;47.130;16.844;2023-02-28T02:17:44;100793.81;;;-0.90;78.06
77149;BME280;66122;47.130;16.844;2023-02-28T02:38:21;100788.69;;;-0.84;78.14
77149;BME280;66122;47.130;16.844;2023-02-28T02:48:34;100793.19;;;-0.61;77.29
77149;BME280;66122;47.130;16.844;2023-02-28T02:58:42;100800.09;;;-0.66;76.69
77149;BME280;66122;47.130;16.844;2023-02-28T03:08:47;100800.97;;;-0.67;77.94
77149;BME280;66122;47.130;16.844;2023-02-28T03:29:42;100801.81;;;-0.70;80.35
77149;BME280;66122;47.130;16.844;2023-02-28T03:39:54;100798.38;;;-0.63;78.65
77149;BME280;66122;47.130;16.844;2023-02-28T03:50:05;100810.47;;;-0.69;80.08
77149;BME280;66122;47.130;16.844;2023-02-28T04:00:20;100818.34;;;-0.63;80.33
77149;BME280;66122;47.130;16.844;2023-02-28T04:10:23;100824.53;;;-0.52;80.49
77149;BME280;66122;47.130;16.844;2023-02-28T04:20:26;100824.59;;;-0.42;80.03
77149;BME280;66122;47.130;16.844;2023-02-28T04:30:31;100821.91;;;-0.52;79.60
77149;BME280;66122;47.130;16.844;2023-02-28T04:40:35;100819.25;;;-0.58;80.05
77149;BME280;66122;47.130;16.844;2023-02-28T04:50:37;100839.19;;;-0.57;80.19
77149;BME280;66122;47.130;16.844;2023-02-28T05:00:44;100827.13;;;-0.49;81.03
77149;BME280;66122;47.130;16.844;2023-02-28T05:10:47;100831.41;;;-0.56;82.07
77149;BME280;66122;47.130;16.844;2023-02-28T05:20:49;100811.34;;;-0.69;81.77
77149;BME280;66122;47.130;16.844;2023-02-28T05:30:52;100832.09;;;-0.76;84.83
77149;BME280;66122;47.130;16.844;2023-02-28T05:40:55;100841.69;;;-0.74;84.31
77149;BME280;66122;47.130;16.844;2023-02-28T05:50:58;100848.72;;;-0.61;83.49
77149;BME280;66122;47.130;16.844;2023-02-28T06:01:20;100858.47;;;-0.35;81.39
77149;BME280;66122;47.130;16.844;2023-02-28T06:11:23;100882.13;;;-0.10;81.15
77149;BME280;66122;47.130;16.844;2023-02-28T06:21:31;100882.88;;;-0.26;80.57
77149;BME280;66122;47.130;16.844;2023-02-28T06:31:34;100889.91;;;-0.16;82.07
77149;BME280;66122;47.130;16.844;2023-02-28T06:41:37;100897.84;;;-0.01;83.17
77149;BME280;66122;47.130;16.844;2023-02-28T06:51:55;100894.47;;;0.19;82.56
77149;BME280;66122;47.130;16.844;2023-02-28T07:01:58;100911.09;;;0.36;79.77
77149;BME280;66122;47.130;16.844;2023-02-28T07:12:01;100919.13;;;0.77;78.57
77149;BME280;66122;47.130;16.844;2023-02-28T07:22:04;100908.72;;;0.89;77.08
77149;BME280;66122;47.130;16.844;2023-02-28T07:32:07;100921.00;;;1.14;76.40
77149;BME280;66122;47.130;16.844;2023-02-28T07:42:10;100937.59;;;1.45;75.30
77149;BME280;66122;47.130;16.844;2023-02-28T07:52:14;100933.28;;;1.61;73.87
77149;BME280;66122;47.130;16.844;2023-02-28T08:02:18;100939.41;;;1.92;71.58
77149;BME280;66122;47.130;16.844;2023-02-28T08:12:21;100929.81;;;1.99;68.59
77149;BME280;66122;47.130;16.844;2023-02-28T08:22:23;100934.16;;;2.28;67.15
77149;BME280;66122;47.130;16.844;2023-02-28T08:32:26;100933.97;;;2.89;64.41
77149;BME280;66122;47.130;16.844;2023-02-28T08:42:32;100935.72;;;2.92;63.13
77149;BME280;66122;47.130;16.844;2023-02-28T08:52:34;100926.78;;;3.37;59.79
77149;BME280;66122;47.130;16.844;2023-02-28T09:02:38;100936.16;;;3.68;57.94
77149;BME280;66122;47.130;16.844;2023-02-28T09:12:41;100924.16;;;4.42;57.40
77149;BME280;66122;47.130;16.844;2023-02-28T09:22:43;100930.63;;;4.09;57.71
77149;BME280;66122;47.130;16.844;2023-02-28T09:32:46;100923.75;;;4.82;56.09
77149;BME280;66122;47.130;16.844;2023-02-28T09:42:56;100921.06;;;4.86;56.91
77149;BME280;66122;47.130;16.844;2023-02-28T09:53:02;100930.75;;;4.80;55.37
77149;BME280;66122;47.130;16.844;2023-02-28T10:03:25;100926.41;;;5.46;54.72
77149;BME280;66122;47.130;16.844;2023-02-28T10:24:26;100915.06;;;6.94;50.42
77149;BME280;66122;47.130;16.844;2023-02-28T10:34:30;100905.00;;;6.70;50.05
77149;BME280;66122;47.130;16.844;2023-02-28T10:44:33;100890.28;;;6.60;48.01
77149;BME280;66122;47.130;16.844;2023-02-28T10:54:36;100886.91;;;9.34;42.08
77149;BME280;66122;47.130;16.844;2023-02-28T11:04:40;100879.47;;;8.88;42.83
77149;BME280;66122;47.130;16.844;2023-02-28T11:15:40;100859.59;;;10.39;40.75
77149;BME280;66122;47.130;16.844;2023-02-28T11:25:30;100861.25;;;9.08;41.42
77149;BME280;66122;47.130;16.844;2023-02-28T11:35:36;100843.06;;;10.57;38.04
77149;BME280;66122;47.130;16.844;2023-02-28T11:55:52;100815.38;;;12.57;35.71
77149;BME280;66122;47.130;16.844;2023-02-28T12:06:21;100817.13;;;8.19;41.49
77149;BME280;66122;47.130;16.844;2023-02-28T12:26:46;100783.16;;;13.02;32.32
77149;BME280;66122;47.130;16.844;2023-02-28T12:36:53;100762.41;;;12.90;33.08
77149;BME280;66122;47.130;16.844;2023-02-28T12:47:02;100739.38;;;13.26;31.99
77149;BME280;66122;47.130;16.844;2023-02-28T13:17:28;100735.00;;;11.09;35.28
77149;BME280;66122;47.130;16.844;2023-02-28T13:27:39;100740.13;;;9.46;37.67
77149;BME280;66122;47.130;16.844;2023-02-28T13:37:44;100730.16;;;8.13;38.79
77149;BME280;66122;47.130;16.844;2023-02-28T13:58:25;100722.84;;;9.09;37.37
77149;BME280;66122;47.130;16.844;2023-02-28T14:08:24;100716.50;;;7.99;43.00
77149;BME280;66122;47.130;16.844;2023-02-28T14:18:31;100711.56;;;8.16;41.94
77149;BME280;66122;47.130;16.844;2023-02-28T14:39:00;100705.53;;;7.14;45.91
77149;BME280;66122;47.130;16.844;2023-02-28T14:49:05;100703.66;;;7.19;44.84
77149;BME280;66122;47.130;16.844;2023-02-28T14:59:28;100702.63;;;6.90;46.53
77149;BME280;66122;47.130;16.844;2023-02-28T15:09:31;100702.78;;;6.83;47.08
77149;BME280;66122;47.130;16.844;2023-02-28T15:19:37;100690.69;;;6.74;46.27
77149;BME280;66122;47.130;16.844;2023-02-28T15:29:46;100694.88;;;6.44;46.50
77149;BME280;66122;47.130;16.844;2023-02-28T15:39:52;100708.72;;;6.12;48.37
77149;BME280;66122;47.130;16.844;2023-02-28T15:50:06;100685.94;;;5.67;50.42
77149;BME280;66122;47.130;16.844;2023-02-28T16:00:15;100702.16;;;5.41;49.96
77149;BME280;66122;47.130;16.844;2023-02-28T16:10:19;100714.22;;;5.03;52.20
77149;BME280;66122;47.130;16.844;2023-02-28T16:20:24;100717.41;;;4.65;54.40
77149;BME280;66122;47.130;16.844;2023-02-28T16:30:29;100723.19;;;4.26;54.30
77149;BME280;66122;47.130;16.844;2023-02-28T16:40:36;100721.06;;;3.86;58.25
77149;BME280;66122;47.130;16.844;2023-02-28T16:50:39;100728.34;;;3.60;57.76
77149;BME280;66122;47.130;16.844;2023-02-28T17:00:43;100731.25;;;3.30;57.82
77149;BME280;66122;47.130;16.844;2023-02-28T17:10:46;100748.00;;;3.06;59.90
77149;BME280;66122;47.130;16.844;2023-02-28T17:20:49;100763.88;;;2.82;60.70
77149;BME280;66122;47.130;16.844;2023-02-28T17:30:52;100767.41;;;2.74;60.34
77149;BME280;66122;47.130;16.844;2023-02-28T17:40:54;100764.84;;;2.67;60.83
77149;BME280;66122;47.130;16.844;2023-02-28T17:50:59;100758.81;;;2.53;62.10
77149;BME280;66122;47.130;16.844;2023-02-28T18:01:02;100764.94;;;2.49;61.79
77149;BME280;66122;47.130;16.844;2023-02-28T18:11:05;100769.31;;;2.47;61.48
77149;BME280;66122;47.130;16.844;2023-02-28T18:21:09;100773.72;;;2.45;61.88
77149;BME280;66122;47.130;16.844;2023-02-28T18:31:18;100780.69;;;2.40;62.55
77149;BME280;66122;47.130;16.844;2023-02-28T18:41:22;100792.91;;;2.31;62.99
77149;BME280;66122;47.130;16.844;2023-02-28T18:51:27;100793.03;;;2.07;63.50
77149;BME280;66122;47.130;16.844;2023-02-28T19:01:30;100800.91;;;1.84;64.45
77149;BME280;66122;47.130;16.844;2023-02-28T19:11:34;100814.84;;;1.67;65.55
77149;BME280;66122;47.130;16.844;2023-02-28T19:21:38;100820.97;;;1.29;67.71
77149;BME280;66122;47.130;16.844;2023-02-28T19:31:41;100825.31;;;1.26;67.63
77149;BME280;66122;47.130;16.844;2023-02-28T19:41:44;100827.03;;;1.07;69.17
77149;BME280;66122;47.130;16.844;2023-02-28T19:51:47;100817.44;;;1.00;69.80
77149;BME280;66122;47.130;16.844;2023-02-28T20:01:51;100806.94;;;0.72;71.17
77149;BME280;66122;47.130;16.844;2023-02-28T20:11:57;100815.66;;;0.79;70.92
77149;BME280;66122;47.130;16.844;2023-02-28T20:22:01;100813.91;;;0.79;71.53
77149;BME280;66122;47.130;16.844;2023-02-28T20:32:04;100813.03;;;0.71;69.76
77149;BME280;66122;47.130;16.844;2023-02-28T20:42:10;100813.88;;;0.69;70.01
77149;BME280;66122;47.130;16.844;2023-02-28T20:52:13;100811.31;;;0.72;71.96
77149;BME280;66122;47.130;16.844;2023-02-28T21:02:17;100815.69;;;0.91;71.00
77149;BME280;66122;47.130;16.844;2023-02-28T21:12:21;100809.63;;;1.06;70.46
77149;BME280;66122;47.130;16.844;2023-02-28T21:22:23;100794.81;;;1.02;70.37
77149;BME280;66122;47.130;16.844;2023-02-28T21:32:26;100784.34;;;0.88;73.33
77149;BME280;66122;47.130;16.844;2023-02-28T21:42:29;100786.16;;;1.07;72.68
77149;BME280;66122;47.130;16.844;2023-02-28T21:52:31;100757.44;;;1.10;71.35
77149;BME280;66122;47.130;16.844;2023-02-28T22:02:35;100774.81;;;1.31;71.30
77149;BME280;66122;47.130;16.844;2023-02-28T22:12:38;100767.00;;;1.46;70.30
77149;BME280;66122;47.130;16.844;2023-02-28T22:22:40;100767.88;;;1.44;71.20
77149;BME280;66122;47.130;16.844;2023-02-28T22:32:43;100773.09;;;1.50;71.31
77149;BME280;66122;47.130;16.844;2023-02-28T22:42:45;100787.88;;;1.40;71.95
77149;BME280;66122;47.130;16.844;2023-02-28T22:52:48;100799.19;;;1.32;72.70
77149;BME280;66122;47.130;16.844;2023-02-28T23:02:50;100799.22;;;1.42;71.64
77149;BME280;66122;47.130;16.844;2023-02-28T23:12:53;100794.84;;;1.38;70.89
77149;BME280;66122;47.130;16.844;2023-02-28T23:22:55;100791.38;;;1.42;70.73
77149;BME280;66122;47.130;16.844;2023-02-28T23:32:58;100801.81;;;1.42;71.35
77149;BME280;66122;47.130;16.844;2023-02-28T23:43:00;100791.38;;;1.42;71.43
77149;BME280;66122;47.130;16.844;2023-02-28T23:53:03;100785.28;;;1.31;73.45
